Time;durP1;ratioP1;P1;durP2;ratioP2;P2;SDS_P1;SDS_P2;PMS_P1;PMS_P2;Temp;Humidity;BMP_temperature;BMP_pressure;BME280_temperature;BME280_humidity;BME280_pressure;Samples;Min_cycle;Max_cycle;Signal;HPM_P1;HPM_P2
2020/12/16 00:01:34;;;;;;;8.68;1.33;;;14.80;99.90;;;;;;4403201;32;20458;-85
2020/12/16 00:04:03;;;;;;;6.95;1.23;;;14.70;99.90;;;;;;4405444;32;20350;-85
2020/12/16 00:06:31;;;;;;;2.15;1.00;;;14.60;99.90;;;;;;4397848;32;20484;-85
2020/12/16 00:08:59;;;;;;;2.70;1.10;;;14.60;99.90;;;;;;4404619;32;20038;-85
2020/12/16 00:11:27;;;;;;;6.07;4.12;;;14.50;99.90;;;;;;4395052;32;20078;-84
2020/12/16 00:13:55;;;;;;;4.80;3.42;;;14.50;99.90;;;;;;4400887;32;21348;-85
2020/12/16 00:16:23;;;;;;;2.03;1.80;;;14.50;99.90;;;;;;4401689;32;20124;-85
2020/12/16 00:18:51;;;;;;;4.12;3.03;;;14.40;99.90;;;;;;4402962;32;20453;-85
2020/12/16 00:21:23;;;;;;;3.62;2.55;;;14.40;99.90;;;;;;4409343;32;20092;-85
2020/12/16 00:23:51;;;;;;;3.83;1.25;;;14.40;99.90;;;;;;4401376;32;20084;-85
2020/12/16 00:26:19;;;;;;;5.70;2.08;;;14.40;99.90;;;;;;4404603;32;20216;-85
2020/12/16 00:28:47;;;;;;;4.65;1.20;;;14.40;99.90;;;;;;4399420;32;20051;-85
2020/12/16 00:31:15;;;;;;;3.03;1.17;;;14.40;99.90;;;;;;4402745;32;20098;-86
2020/12/16 00:33:43;;;;;;;7.53;1.58;;;14.40;99.90;;;;;;4399158;32;20089;-85
2020/12/16 00:36:11;;;;;;;4.10;1.12;;;14.40;99.90;;;;;;4409855;32;20092;-85
2020/12/16 00:38:39;;;;;;;6.25;1.33;;;14.30;99.90;;;;;;4410694;32;20042;-85
2020/12/16 00:41:07;;;;;;;4.40;1.25;;;14.30;99.90;;;;;;4389934;32;20101;-85
2020/12/16 00:43:35;;;;;;;4.82;1.05;;;14.20;99.90;;;;;;4400822;32;20135;-85
2020/12/16 00:46:03;;;;;;;9.20;1.65;;;14.20;99.90;;;;;;4388487;32;20179;-85
2020/12/16 00:48:31;;;;;;;8.27;1.02;;;14.20;99.90;;;;;;4405996;32;20092;-85
2020/12/16 00:50:59;;;;;;;6.05;1.35;;;14.00;99.90;;;;;;4393864;32;20113;-85
2020/12/16 00:53:29;;;;;;;6.43;0.88;;;14.00;99.90;;;;;;4399125;32;20555;-85
2020/12/16 00:55:57;;;;;;;5.43;1.20;;;14.00;99.90;;;;;;4412914;32;20554;-85
2020/12/16 00:58:25;;;;;;;4.62;0.60;;;14.00;99.90;;;;;;4404574;32;20143;-84
2020/12/16 01:00:54;;;;;;;3.37;1.10;;;14.00;99.90;;;;;;4404340;32;20515;-85
2020/12/16 01:03:22;;;;;;;3.12;1.48;;;14.00;99.90;;;;;;4398631;32;20121;-85
2020/12/16 01:05:50;;;;;;;2.62;0.75;;;14.00;99.90;;;;;;4403355;32;20085;-86
2020/12/16 01:08:19;;;;;;;0.77;0.52;;;14.00;99.90;;;;;;4396441;32;20138;-85
2020/12/16 01:10:48;;;;;;;3.83;0.70;;;14.00;99.90;;;;;;4383692;32;20054;-85
2020/12/16 01:13:16;;;;;;;5.30;0.93;;;14.00;99.90;;;;;;4398668;32;20350;-86
2020/12/16 01:15:45;;;;;;;1.75;1.02;;;14.00;99.90;;;;;;4396855;32;20149;-85
2020/12/16 01:18:13;;;;;;;1.70;0.85;;;13.90;99.90;;;;;;4409146;32;20109;-85
2020/12/16 01:20:41;;;;;;;1.87;0.65;;;13.80;99.90;;;;;;4398076;32;20428;-85
2020/12/16 01:23:10;;;;;;;3.83;0.90;;;13.80;99.90;;;;;;4399545;32;20062;-86
2020/12/16 01:25:39;;;;;;;5.07;1.25;;;13.80;99.90;;;;;;4391412;32;20069;-85
2020/12/16 01:28:07;;;;;;;2.72;1.23;;;13.80;99.90;;;;;;4410222;32;20603;-85
2020/12/16 01:30:37;;;;;;;1.95;0.60;;;13.70;99.90;;;;;;4403439;32;20054;-85
2020/12/16 01:33:05;;;;;;;1.05;0.60;;;13.80;99.90;;;;;;4412743;32;20097;-86
2020/12/16 01:35:33;;;;;;;5.47;0.82;;;13.70;99.90;;;;;;4404012;32;20126;-85
2020/12/16 01:38:02;;;;;;;2.00;0.80;;;13.70;99.90;;;;;;4391771;32;20066;-85
2020/12/16 01:40:32;;;;;;;2.53;0.68;;;13.60;99.90;;;;;;4407310;32;20837;-85
2020/12/16 01:43:00;;;;;;;1.08;0.77;;;13.70;99.90;;;;;;4404667;32;20966;-85
2020/12/16 01:45:29;;;;;;;9.63;0.95;;;13.70;99.90;;;;;;4406600;32;20059;-85
2020/12/16 01:47:57;;;;;;;4.47;1.17;;;13.60;99.90;;;;;;4408327;32;20046;-85
2020/12/16 01:50:26;;;;;;;4.57;1.08;;;13.60;99.90;;;;;;4400729;32;21014;-85
2020/12/16 01:52:59;;;;;;;5.85;1.52;;;13.60;99.90;;;;;;4398172;32;20416;-85
2020/12/16 01:55:34;;;;;;;6.82;1.30;;;13.60;99.90;;;;;;4405103;32;20050;-85
2020/12/16 01:58:06;;;;;;;2.95;0.90;;;13.60;99.90;;;;;;4405417;32;20178;-85
2020/12/16 02:00:37;;;;;;;4.55;1.23;;;13.60;99.90;;;;;;4407878;32;20070;-84
2020/12/16 02:03:16;;;;;;;5.15;1.50;;;13.60;99.90;;;;;;4390302;32;20058;-84
2020/12/16 02:05:45;;;;;;;;;;;13.60;99.90;;;;;;4396866;32;20072;-86
2020/12/16 02:08:16;;;;;;;2.20;1.00;;;13.60;99.90;;;;;;4399965;32;19983;-85
2020/12/16 02:10:45;;;;;;;2.40;0.82;;;13.50;99.90;;;;;;4400631;32;20054;-85
2020/12/16 02:13:14;;;;;;;3.03;0.90;;;13.50;99.90;;;;;;4406455;32;20115;-84
2020/12/16 02:15:42;;;;;;;4.80;0.90;;;13.40;99.90;;;;;;4402378;32;20050;-85
2020/12/16 02:18:11;;;;;;;3.62;1.10;;;13.50;99.90;;;;;;4405805;32;20034;-85
2020/12/16 02:20:41;;;;;;;4.78;1.10;;;13.40;99.90;;;;;;4408108;32;20165;-86
2020/12/16 02:23:18;;;;;;;9.75;1.45;;;13.40;99.90;;;;;;4409581;32;20062;-85
2020/12/16 02:25:48;;;;;;;5.30;1.20;;;13.30;99.90;;;;;;4397545;32;20121;-85
2020/12/16 02:28:16;;;;;;;1.62;1.00;;;13.30;99.90;;;;;;4391795;32;20063;-85
2020/12/16 02:30:44;;;;;;;1.55;0.70;;;13.30;99.90;;;;;;4391575;32;20071;-85
2020/12/16 02:33:14;;;;;;;1.55;0.57;;;13.20;99.90;;;;;;4400801;32;20557;-85
2020/12/16 02:35:44;;;;;;;2.30;0.80;;;13.20;99.90;;;;;;4399991;32;20121;-85
2020/12/16 02:38:12;;;;;;;3.03;0.80;;;13.20;99.90;;;;;;4407526;32;20209;-84
2020/12/16 02:40:40;;;;;;;6.18;1.37;;;13.20;99.90;;;;;;4407205;32;20441;-84
2020/12/16 02:43:10;;;;;;;2.08;0.98;;;13.20;99.90;;;;;;4400913;32;20050;-85
2020/12/16 02:45:38;;;;;;;0.85;0.80;;;13.20;99.90;;;;;;4399189;32;20149;-85
2020/12/16 02:48:06;;;;;;;3.45;1.17;;;13.20;99.90;;;;;;4403154;32;20055;-85
2020/12/16 02:50:35;;;;;;;4.85;1.62;;;13.20;99.90;;;;;;4401996;32;20128;-85
2020/12/16 02:53:03;;;;;;;6.80;1.12;;;13.10;99.90;;;;;;4402896;32;20047;-84
2020/12/16 02:55:35;;;;;;;2.95;0.88;;;13.10;99.90;;;;;;4399414;32;20054;-85
2020/12/16 02:58:03;;;;;;;2.83;0.73;;;13.10;99.90;;;;;;4410851;32;20046;-85
2020/12/16 03:00:31;;;;;;;7.72;1.20;;;13.10;99.90;;;;;;4406686;32;20162;-85
2020/12/16 03:03:00;;;;;;;0.70;0.70;;;13.30;99.90;;;;;;4406575;32;20489;-85
2020/12/16 03:05:28;;;;;;;3.62;1.00;;;13.20;99.90;;;;;;4399944;32;20135;-85
2020/12/16 03:07:56;;;;;;;7.68;1.60;;;13.20;99.90;;;;;;4404236;32;20070;-85
2020/12/16 03:10:24;;;;;;;6.75;1.23;;;13.20;99.90;;;;;;4427519;27;20457;-93
2020/12/16 03:12:59;;;;;;;6.47;1.52;;;13.40;99.90;;;;;;4395314;32;20113;-95
2020/12/16 03:15:28;;;;;;;8.75;1.58;;;13.30;99.90;;;;;;4413638;32;20204;-94
2020/12/16 03:18:02;;;;;;;11.65;1.67;;;13.60;99.90;;;;;;4392123;32;20085;-93
2020/12/16 03:20:34;;;;;;;8.07;1.67;;;13.50;99.90;;;;;;4386004;32;20074;-94
2020/12/16 03:23:10;;;;;;;3.25;0.80;;;13.60;99.90;;;;;;4399157;32;20424;-95
2020/12/16 03:26:18;;;;;;;15.15;1.58;;;13.60;99.90;;;;;;4415262;32;20104;-94
2020/12/16 03:28:53;;;;;;;6.12;1.42;;;13.30;99.90;;;;;;4396213;32;20051;-95
2020/12/16 03:31:27;;;;;;;4.10;1.37;;;13.30;99.90;;;;;;4385243;32;20058;-93
2020/12/16 03:33:55;;;;;;;4.30;1.30;;;13.20;99.90;;;;;;4386188;32;20086;-95
2020/12/16 03:36:31;;;;;;;2.85;1.17;;;13.10;99.90;;;;;;4393936;32;20102;-95
2020/12/16 03:39:04;;;;;;;0.80;0.70;;;13.00;99.90;;;;;;4415727;32;20083;-94
2020/12/16 03:41:39;;;;;;;4.78;1.17;;;12.90;99.90;;;;;;4406149;32;20066;-94
2020/12/16 03:44:08;;;;;;;2.65;1.08;;;13.00;99.90;;;;;;4405248;32;20444;-95
2020/12/16 03:46:40;;;;;;;3.60;1.12;;;12.90;99.90;;;;;;4399019;32;20066;-93
2020/12/16 03:49:08;;;;;;;3.40;1.12;;;13.00;99.90;;;;;;4395987;32;20054;-96
2020/12/16 03:51:37;;;;;;;5.40;1.02;;;13.10;99.90;;;;;;4398870;32;20073;-95
2020/12/16 03:54:11;;;;;;;2.10;1.10;;;13.20;99.90;;;;;;4417247;32;20066;-94
2020/12/16 03:56:44;;;;;;;2.65;0.82;;;13.10;99.90;;;;;;4407948;32;20054;-94
2020/12/16 03:59:12;;;;;;;10.15;1.40;;;12.90;99.90;;;;;;4409122;32;20082;-94
2020/12/16 04:01:44;;;;;;;4.00;0.82;;;13.00;99.90;;;;;;4405630;32;20110;-94
2020/12/16 04:04:22;;;;;;;1.52;0.82;;;12.80;99.90;;;;;;4400567;32;20102;-94
2020/12/16 04:06:56;;;;;;;3.33;1.02;;;12.90;99.90;;;;;;4398880;32;20067;-95
2020/12/16 04:09:26;;;;;;;5.87;1.00;;;13.00;99.90;;;;;;4413985;32;20105;-95
2020/12/16 04:12:03;;;;;;;;;;;13.00;99.90;;;;;;4402370;32;20479;-95
2020/12/16 04:14:41;;;;;;;2.78;0.70;;;13.30;99.90;;;;;;4417509;32;19934;-94
2020/12/16 04:17:13;;;;;;;4.80;1.12;;;13.20;99.90;;;;;;4426559;32;20081;-95
2020/12/16 04:19:43;;;;;;;3.97;1.40;;;13.30;99.90;;;;;;4420276;32;20159;-94
2020/12/16 04:22:11;;;;;;;1.33;0.77;;;13.20;99.90;;;;;;4413248;32;20126;-94
2020/12/16 04:24:59;;;;;;;4.62;1.27;;;13.10;99.90;;;;;;4422057;32;20026;-94
2020/12/16 04:27:28;;;;;;;0.98;0.80;;;13.20;99.90;;;;;;4413684;32;20421;-94
2020/12/16 04:30:03;;;;;;;4.15;1.58;;;13.30;99.90;;;;;;4410948;32;20073;-94
2020/12/16 04:32:37;;;;;;;4.37;3.97;;;13.70;99.90;;;;;;4420496;32;20098;-94
2020/12/16 04:35:09;;;;;;;7.00;3.45;;;13.60;99.90;;;;;;4406070;32;20491;-96
2020/12/16 04:37:40;;;;;;;5.75;2.58;;;13.80;99.90;;;;;;4405428;32;20050;-95
2020/12/16 04:40:09;;;;;;;5.40;2.53;;;13.80;99.90;;;;;;4406964;32;20163;-93
2020/12/16 04:42:41;;;;;;;3.92;2.80;;;13.80;99.90;;;;;;4407713;32;20471;-95
2020/12/16 04:45:12;;;;;;;2.58;1.83;;;13.90;99.90;;;;;;4420887;32;20062;-94
2020/12/16 04:47:51;;;;;;;3.85;3.17;;;14.00;99.90;;;;;;4410715;32;20077;-94
2020/12/16 04:50:22;;;;;;;4.03;3.78;;;14.10;99.90;;;;;;4410062;32;20064;-96
2020/12/16 04:53:13;;;;;;;4.55;4.15;;;14.10;99.90;;;;;;4401711;32;20071;-95
2020/12/16 04:55:52;;;;;;;4.20;3.90;;;14.10;99.90;;;;;;4409221;32;20502;-95
2020/12/16 04:58:20;;;;;;;4.30;3.90;;;14.30;99.90;;;;;;4409521;32;20070;-95
2020/12/16 05:00:55;;;;;;;3.90;3.70;;;14.30;99.90;;;;;;4405638;32;20104;-94
2020/12/16 05:03:28;;;;;;;3.78;3.47;;;14.40;99.90;;;;;;4425355;32;20068;-93
2020/12/16 05:06:02;;;;;;;1.95;0.70;;;14.50;99.90;;;;;;4409005;32;20498;-94
2020/12/16 05:08:31;;;;;;;4.12;3.90;;;14.60;99.90;;;;;;4407773;32;20059;-95
2020/12/16 05:11:04;;;;;;;3.72;3.60;;;14.50;99.90;;;;;;4405192;32;20357;-96
2020/12/16 05:13:32;;;;;;;3.97;3.70;;;14.60;99.90;;;;;;4416122;32;20088;-96
2020/12/16 05:16:12;;;;;;;2.53;2.42;;;14.70;99.90;;;;;;4419652;32;20112;-94
2020/12/16 05:18:50;;;;;;;1.98;0.50;;;14.70;99.90;;;;;;4406950;32;20081;-94
2020/12/16 05:21:25;;;;;;;1.20;0.88;;;14.60;99.90;;;;;;4407167;32;20058;-95
2020/12/16 05:24:14;;;;;;;1.08;0.62;;;14.70;99.90;;;;;;4403474;32;20506;-94
2020/12/16 05:26:53;;;;;;;4.90;1.75;;;14.80;99.90;;;;;;4403989;32;20062;-96
2020/12/16 05:29:27;;;;;;;5.53;4.10;;;14.80;99.90;;;;;;4414702;32;20065;-94
2020/12/16 05:31:58;;;;;;;7.18;4.57;;;14.90;99.90;;;;;;4399287;32;20122;-94
2020/12/16 05:34:29;;;;;;;6.22;5.07;;;14.90;99.90;;;;;;4410640;32;20120;-96
2020/12/16 05:37:25;;;;;;;13.62;5.00;;;14.80;99.90;;;;;;4423230;32;20059;-96
2020/12/16 05:39:54;;;;;;;6.50;4.10;;;15.00;99.90;;;;;;4405561;32;20091;-96
2020/12/16 05:42:46;;;;;;;4.62;4.10;;;14.90;99.90;;;;;;4412364;32;20058;-96
2020/12/16 05:45:28;;;;;;;4.93;4.10;;;14.90;99.90;;;;;;4412382;32;20061;-96
2020/12/16 05:48:10;;;;;;;5.95;4.07;;;14.90;99.90;;;;;;4405495;32;20121;-95
2020/12/16 05:50:52;;;;;;;4.80;4.43;;;14.40;99.90;;;;;;4413840;32;21348;-95
2020/12/16 05:53:29;;;;;;;4.93;4.43;;;14.80;99.90;;;;;;4402638;32;20058;-96
2020/12/16 05:56:04;;;;;;;4.70;4.32;;;14.90;99.90;;;;;;4408430;32;20451;-96
2020/12/16 05:58:41;;;;;;;5.00;4.10;;;14.90;99.90;;;;;;4407805;32;20050;-96
2020/12/16 06:01:32;;;;;;;9.02;4.78;;;14.90;99.90;;;;;;4416689;32;20093;-96
2020/12/16 06:04:13;;;;;;;7.32;4.70;;;14.70;99.90;;;;;;4422841;32;20116;-96
2020/12/16 06:06:42;;;;;;;7.85;4.15;;;14.60;99.90;;;;;;4407078;32;20058;-96
2020/12/16 06:09:16;;;;;;;7.28;4.43;;;14.60;99.90;;;;;;4390565;32;20515;-96
2020/12/16 06:11:55;;;;;;;10.82;4.28;;;14.60;99.90;;;;;;4421282;32;20051;-95
2020/12/16 06:14:50;;;;;;;5.05;4.10;;;14.60;99.90;;;;;;4413264;32;20115;-96
2020/12/16 06:17:26;;;;;;;6.45;4.43;;;14.90;99.90;;;;;;4426322;32;20087;-96
2020/12/16 06:20:21;;;;;;;5.57;4.30;;;15.00;99.90;;;;;;4427840;32;20043;-96
2020/12/16 06:23:39;;;;;;;3.92;3.70;;;15.10;99.90;;;;;;4426615;32;20042;-95
2020/12/16 06:27:35;;;;;;;4.30;4.05;;;14.80;99.90;;;;;;4428126;32;20074;-95
2020/12/16 06:30:06;;;;;;;4.20;4.00;;;15.20;99.90;;;;;;4403473;32;20102;-95
2020/12/16 06:32:44;;;;;;;5.62;5.28;;;15.20;99.90;;;;;;4408730;32;20054;-95
2020/12/16 06:35:19;;;;;;;5.40;5.10;;;15.20;99.90;;;;;;4397081;32;20079;-96
2020/12/16 06:38:20;;;;;;;5.18;4.85;;;15.10;99.90;;;;;;4420617;32;20478;-96
2020/12/16 06:40:55;;;;;;;5.25;4.60;;;15.50;99.90;;;;;;4416333;32;20138;-96
2020/12/16 06:43:34;;;;;;;;;;;15.50;99.90;;;;;;4414927;32;20077;-95
2020/12/16 06:46:34;;;;;;;4.55;4.35;;;15.50;99.90;;;;;;4391536;32;19997;-94
2020/12/16 06:49:06;;;;;;;4.90;4.60;;;15.50;99.90;;;;;;4401762;32;20104;-94
2020/12/16 06:51:47;;;;;;;6.05;5.00;;;15.60;99.90;;;;;;4405504;32;20120;-95
2020/12/16 06:54:20;;;;;;;9.07;4.93;;;15.50;99.90;;;;;;4419038;32;20081;-94
2020/12/16 06:57:13;;;;;;;5.10;4.70;;;15.40;99.90;;;;;;4414320;32;20051;-96
2020/12/16 06:59:47;;;;;;;5.18;4.87;;;15.30;99.90;;;;;;4401882;32;20124;-94
2020/12/16 07:02:40;;;;;;;4.80;4.50;;;15.40;99.90;;;;;;4402737;32;20118;-96
2020/12/16 07:05:40;;;;;;;5.32;4.43;;;15.30;99.90;;;;;;4401245;32;20139;-94
2020/12/16 07:08:08;;;;;;;4.72;4.20;;;15.00;99.90;;;;;;4398724;32;20714;-94
2020/12/16 07:10:42;;;;;;;7.80;5.03;;;15.10;99.90;;;;;;4400749;32;20102;-94
2020/12/16 07:13:24;;;;;;;7.10;4.20;;;15.10;99.90;;;;;;4406981;32;20061;-95
2020/12/16 07:16:13;;;;;;;;;;;;;;;;;;;;;
2020/12/16 07:18:56;;;;;;;6.53;4.03;;;14.80;99.90;;;;;;4416680;32;20055;-95
2020/12/16 07:21:40;;;;;;;4.32;4.03;;;15.00;99.90;;;;;;4400944;32;20161;-96
2020/12/16 07:24:15;;;;;;;4.45;4.25;;;14.60;99.90;;;;;;4402545;32;20092;-95
2020/12/16 07:26:56;;;;;;;2.55;2.42;;;14.80;99.90;;;;;;4395912;32;20103;-96
2020/12/16 07:29:36;;;;;;;3.47;3.17;;;14.60;99.90;;;;;;4413910;32;20066;-94
2020/12/16 07:32:08;;;;;;;2.62;2.40;;;14.60;99.90;;;;;;4403351;32;20072;-95
2020/12/16 07:34:48;;;;;;;1.85;1.75;;;14.20;99.90;;;;;;4403050;32;20091;-96
2020/12/16 07:37:21;;;;;;;2.47;2.37;;;14.20;99.90;;;;;;4404609;32;20074;-95
2020/12/16 07:39:58;;;;;;;3.40;2.50;;;14.30;99.90;;;;;;4402547;32;20437;-95
2020/12/16 07:42:31;;;;;;;3.17;2.40;;;14.20;99.90;;;;;;4415061;32;20123;-93
2020/12/16 07:45:03;;;;;;;6.18;2.65;;;14.30;99.90;;;;;;4405118;32;20815;-95
2020/12/16 07:47:33;;;;;;;2.97;2.78;;;14.50;99.90;;;;;;4410891;32;20062;-94
2020/12/16 07:50:11;;;;;;;2.00;1.90;;;14.30;99.90;;;;;;4405002;32;20094;-94
2020/12/16 07:52:50;;;;;;;5.97;3.00;;;14.40;99.90;;;;;;4430229;32;20108;-94
2020/12/16 07:55:24;;;;;;;3.67;3.33;;;14.60;99.90;;;;;;4397830;32;20767;-95
2020/12/16 07:57:53;;;;;;;5.47;3.10;;;14.70;99.90;;;;;;4407805;32;20089;-93
2020/12/16 08:00:26;;;;;;;2.40;2.30;;;14.90;99.90;;;;;;4404627;32;20105;-94
2020/12/16 08:02:55;;;;;;;4.72;2.75;;;14.90;99.90;;;;;;4406556;32;20094;-93
2020/12/16 08:05:26;;;;;;;4.10;3.62;;;15.00;99.90;;;;;;4411854;32;20654;-95
2020/12/16 08:08:01;;;;;;;4.12;3.17;;;15.10;99.90;;;;;;4404452;27;20453;-79
2020/12/16 08:10:29;;;;;;;4.65;2.55;;;15.10;99.90;;;;;;4379312;32;20546;-79
2020/12/16 08:12:57;;;;;;;3.67;3.40;;;15.20;99.90;;;;;;4382822;32;20063;-81
2020/12/16 08:15:27;;;;;;;6.97;2.37;;;15.30;99.90;;;;;;4384535;32;20058;-79
2020/12/16 08:17:56;;;;;;;3.85;2.90;;;15.50;99.90;;;;;;4382187;32;20400;-79
2020/12/16 08:20:31;;;;;;;2.42;2.30;;;15.60;99.90;;;;;;4379771;32;20074;-80
2020/12/16 08:22:59;;;;;;;3.22;2.17;;;15.80;99.90;;;;;;4378498;32;20464;-79
2020/12/16 08:25:27;;;;;;;2.75;2.65;;;16.00;99.90;;;;;;4384521;32;20473;-79
2020/12/16 08:27:56;;;;;;;2.95;2.85;;;16.20;99.90;;;;;;4383128;32;20035;-80
2020/12/16 08:30:29;;;;;;;2.90;2.67;;;16.40;99.90;;;;;;4382220;32;20130;-79
2020/12/16 08:33:03;;;;;;;3.45;3.15;;;16.70;99.90;;;;;;4382186;32;20434;-79
2020/12/16 08:35:33;;;;;;;5.20;4.65;;;17.00;99.90;;;;;;4383246;32;20346;-80
2020/12/16 08:38:06;;;;;;;3.60;2.40;;;17.30;99.90;;;;;;4387377;32;20153;-80
2020/12/16 08:40:45;;;;;;;17.52;16.05;;;17.40;99.90;;;;;;4384354;32;20150;-80
2020/12/16 08:43:21;;;;;;;11.43;10.85;;;18.10;99.90;;;;;;4383441;32;21191;-80
2020/12/16 08:46:07;;;;;;;0.57;0.57;;;19.40;99.90;;;;;;4384812;32;20118;-80
2020/12/16 08:48:59;;;;;;;4.68;1.65;;;18.60;99.90;;;;;;4378534;32;20894;-79
2020/12/16 08:51:57;;;;;;;1.65;0.98;;;18.10;99.90;;;;;;4382992;32;20581;-80
2020/12/16 08:54:38;;;;;;;4.10;2.78;;;18.00;99.90;;;;;;4373600;32;20452;-79
2020/12/16 08:57:06;;;;;;;4.65;2.40;;;18.00;99.90;;;;;;4381937;32;20046;-79
2020/12/16 08:59:35;;;;;;;1.77;1.75;;;18.00;99.90;;;;;;4384302;32;20071;-80
2020/12/16 09:02:03;;;;;;;3.05;2.17;;;18.10;99.90;;;;;;4381806;32;20047;-79
2020/12/16 09:04:40;;;;;;;4.40;4.20;;;18.30;99.90;;;;;;4386087;32;20106;-80
2020/12/16 09:07:11;;;;;;;8.02;7.53;;;18.60;99.90;;;;;;4380801;32;20165;-80
2020/12/16 09:09:41;;;;;;;12.70;12.05;;;19.10;99.90;;;;;;4384332;32;20141;-80
2020/12/16 09:12:13;;;;;;;8.77;8.38;;;;;;;;;;4388714;32;20467;-81
2020/12/16 09:14:59;;;;;;;1.60;1.50;;;;;;;;;;4386605;32;20094;-81
2020/12/16 09:17:29;;;;;;;1.40;1.30;;;;;;;;;;4382044;32;20433;-81
2020/12/16 09:19:58;;;;;;;0.90;0.90;;;23.60;97.00;;;;;;4376746;32;20313;-81
2020/12/16 09:22:31;;;;;;;0.60;0.60;;;;;;;;;;4381859;32;20106;-80
2020/12/16 09:24:59;;;;;;;1.08;1.00;;;;;;;;;;4383407;32;20103;-80
2020/12/16 09:27:28;;;;;;;0.95;0.60;;;;;;;;;;4383974;32;20419;-80
2020/12/16 09:29:56;;;;;;;0.90;0.52;;;;;;;;;;4383002;32;20105;-80
2020/12/16 09:32:25;;;;;;;1.35;0.60;;;;;;;;;;4387524;32;20054;-80
2020/12/16 09:34:54;;;;;;;1.30;0.57;;;;;;;;;;4383146;32;20098;-80
2020/12/16 09:37:32;;;;;;;0.60;0.50;;;;;;;;;;4375967;32;20440;-80
2020/12/16 09:40:10;;;;;;;2.10;0.65;;;;;;;;;;4381150;32;20051;-79
2020/12/16 09:42:38;;;;;;;32.25;6.30;;;;;;;;;;4377046;32;20063;-80
2020/12/16 09:45:10;;;;;;;1.42;0.50;;;;;;;;;;4385835;32;20059;-80
2020/12/16 09:47:46;;;;;;;0.75;0.50;;;;;;;;;;4378793;32;20118;-79
2020/12/16 09:50:15;;;;;;;10.35;1.30;;;;;;;;;;4378993;32;20449;-81
2020/12/16 09:52:44;;;;;;;0.68;0.50;;;;;;;;;;4380824;32;20039;-79
2020/12/16 09:55:16;;;;;;;0.50;0.50;;;;;;;;;;4386446;32;20257;-80
2020/12/16 09:57:45;;;;;;;0.30;0.30;;;;;;;;;;4382013;32;20135;-79
2020/12/16 10:00:13;;;;;;;0.45;0.45;;;;;;;;;;4379958;32;20046;-79
2020/12/16 10:02:42;;;;;;;0.95;0.50;;;;;;;;;;4383331;32;20527;-79
2020/12/16 10:05:10;;;;;;;4.15;0.88;;;;;;;;;;4384383;32;20073;-79
2020/12/16 10:07:38;;;;;;;3.00;0.90;;;;;;;;;;4375376;32;20114;-80
2020/12/16 10:10:06;;;;;;;0.47;0.47;;;;;;;;;;4376684;32;20073;-79
2020/12/16 10:12:34;;;;;;;1.60;0.57;;;;;;;;;;4381375;32;20501;-80
2020/12/16 10:15:03;;;;;;;0.40;0.40;;;;;;;;;;4381930;32;20062;-80
2020/12/16 10:17:32;;;;;;;2.25;0.95;;;;;;;;;;4376656;32;20603;-80
2020/12/16 10:20:01;;;;;;;0.60;0.60;;;;;;;;;;4378506;32;20051;-80
2020/12/16 10:22:30;;;;;;;1.02;0.80;;;;;;;;;;4381036;32;20114;-79
2020/12/16 10:24:59;;;;;;;0.75;0.60;;;;;;;;;;4386808;32;20134;-80
2020/12/16 10:27:28;;;;;;;1.00;1.00;;;;;;;;;;4379198;32;20088;-80
2020/12/16 10:29:57;;;;;;;0.70;0.70;;;;;;;;;;4380034;32;20098;-80
2020/12/16 10:32:26;;;;;;;0.70;0.70;;;;;;;;;;4384098;32;20550;-80
2020/12/16 10:34:54;;;;;;;1.10;1.10;;;;;;;;;;4381997;32;20058;-81
2020/12/16 10:37:27;;;;;;;0.52;0.52;;;;;;;;;;4380854;32;20104;-80
2020/12/16 10:39:55;;;;;;;0.40;0.40;;;;;;;;;;4379357;32;20395;-80
2020/12/16 10:42:23;;;;;;;156.12;146.65;;;;;;;;;;4382752;32;20136;-81
2020/12/16 10:44:51;;;;;;;10.27;9.70;;;;;;;;;;4379715;32;20126;-82
2020/12/16 10:47:20;;;;;;;6.65;6.35;;;;;;;;;;4376703;32;20112;-82
2020/12/16 10:49:48;;;;;;;41.42;39.58;;;;;;;;;;4384277;32;20110;-80
2020/12/16 10:52:16;;;;;;;24.20;23.02;;;;;;;;;;4384529;32;20107;-80
2020/12/16 10:54:45;;;;;;;44.63;42.65;;;;;;;;;;4381723;32;22001;-80
2020/12/16 10:57:13;;;;;;;62.50;59.60;;;;;;;;;;4382423;32;20173;-80
2020/12/16 10:59:41;;;;;;;120.15;115.00;;;;;;;;;;4385341;32;20148;-80
2020/12/16 11:02:12;;;;;;;227.95;219.07;;;;;;;;;;4382528;32;20109;-81
2020/12/16 11:04:40;;;;;;;52.22;49.80;;;;;;;;;;4379681;32;20121;-80
2020/12/16 11:07:08;;;;;;;11.27;10.48;;;;;;;;;;4384878;32;20062;-80
2020/12/16 11:09:37;;;;;;;2.90;2.70;;;;;;;;;;4383172;32;20081;-79
2020/12/16 11:12:05;;;;;;;3.75;3.50;;;;;;;;;;4380609;32;20163;-80
2020/12/16 11:14:33;;;;;;;5.68;5.28;;;;;;;;;;4382329;32;20096;-81
2020/12/16 11:17:04;;;;;;;49.50;47.22;;;;;;;;;;4378990;32;20149;-81
2020/12/16 11:19:33;;;;;;;7.20;6.87;;;;;;;;;;4379992;32;20500;-80
2020/12/16 11:22:03;;;;;;;27.58;26.27;;;;;;;;;;4383723;32;20063;-80
2020/12/16 11:24:33;;;;;;;5.30;5.00;;;;;;;;;;4383848;32;20073;-80
2020/12/16 11:27:02;;;;;;;26.27;24.98;;;;;;;;;;4386623;32;20054;-80
2020/12/16 11:29:31;;;;;;;9.45;8.75;;;;;;;;;;4387637;32;20059;-80
2020/12/16 11:32:03;;;;;;;974.80;906.00;;;;;;;;;;4389470;32;20173;-80
2020/12/16 11:34:35;;;;;;;39.85;37.90;;;;;;;;;;4389429;32;20090;-79
2020/12/16 11:37:03;;;;;;;347.95;333.40;;;;;;;;;;4380102;32;20054;-81
2020/12/16 11:39:32;;;;;;;43.22;40.72;;;;;;;;;;4385920;32;20090;-81
2020/12/16 11:42:00;;;;;;;175.38;168.48;;;;;;;;;;4387474;32;20100;-80
2020/12/16 11:44:29;;;;;;;12.18;11.60;;;;;;;;;;4381005;32;20530;-79
2020/12/16 11:46:58;;;;;;;28.38;27.08;;;;;;;;;;4388758;32;20080;-81
2020/12/16 11:49:27;;;;;;;20.55;19.45;;;;;;;;;;4384724;32;20055;-81
2020/12/16 11:51:56;;;;;;;23.80;22.55;;;;;;;;;;4384689;32;20090;-79
2020/12/16 11:54:24;;;;;;;14.25;13.55;;;;;;;;;;4384089;32;20062;-80
2020/12/16 11:56:52;;;;;;;708.12;665.67;;;;;;;;;;4386084;32;20473;-80
2020/12/16 11:59:27;;;;;;;530.10;494.60;;;;;;;;;;4382487;32;20497;-79
2020/12/16 12:01:59;;;;;;;307.95;295.65;;;;;;;;;;4389210;32;20432;-80
2020/12/16 12:04:29;;;;;;;346.23;330.90;;;;;;;;;;4381233;32;20051;-81
2020/12/16 12:06:57;;;;;;;318.05;303.23;;;;;;;;;;4382833;32;20055;-79
2020/12/16 12:09:26;;;;;;;448.20;424.50;;;;;;;;;;4387836;32;20058;-80
2020/12/16 12:11:54;;;;;;;274.48;260.48;;;;;;;;;;4386112;32;20063;-79
2020/12/16 12:14:22;;;;;;;428.65;407.58;;;;;;;;;;4380875;32;20120;-81
2020/12/16 12:16:51;;;;;;;637.17;600.33;;;;;;;;;;4384542;32;20055;-81
2020/12/16 12:19:19;;;;;;;644.37;606.08;;;;;;;;;;4388191;32;20464;-79
2020/12/16 12:21:48;;;;;;;632.50;596.83;;;;;;;;;;4383399;32;20460;-80
2020/12/16 12:24:16;;;;;;;436.30;408.87;;;;;;;;;;4380816;32;20145;-82
2020/12/16 12:26:45;;;;;;;674.70;635.75;;;;;;;;;;4387636;32;20134;-79
2020/12/16 12:29:13;;;;;;;643.15;605.42;;;;;;;;;;4386203;32;20109;-81
2020/12/16 12:31:45;;;;;;;404.90;382.55;;;;;;;;;;4386201;32;20097;-81
2020/12/16 12:34:13;;;;;;;14.75;14.05;;;;;;;;;;4384317;32;20110;-83
2020/12/16 12:36:43;;;;;;;65.72;62.70;;;;;;;;;;4365997;32;20067;-81
2020/12/16 12:39:12;;;;;;;171.77;164.10;;;;;;;;;;4387489;32;20108;-81
2020/12/16 12:41:40;;;;;;;283.40;271.02;;;;;;;;;;4384063;32;20077;-80
2020/12/16 12:44:11;;;;;;;198.25;189.02;;;;;;;;;;4383708;32;20059;-81
2020/12/16 12:46:39;;;;;;;257.30;242.90;;;;;;;;;;4379177;32;20055;-80
2020/12/16 12:49:07;;;;;;;278.92;264.85;;;;;;;;;;4390698;32;20067;-80
2020/12/16 12:51:35;;;;;;;238.57;227.82;;;;;;;;;;4384072;32;20852;-80
2020/12/16 12:54:04;;;;;;;418.83;398.58;;;;;;;;;;4384689;32;20077;-81
2020/12/16 12:56:33;;;;;;;311.58;295.98;;;;;;;;;;4381070;32;20095;-81
2020/12/16 12:59:01;;;;;;;408.27;386.95;;;;;;;;;;4381314;32;20077;-80
2020/12/16 13:01:29;;;;;;;253.75;242.57;;;;;;;;;;4381785;32;20176;-80
2020/12/16 13:03:58;;;;;;;331.60;316.65;;;;;;;;;;4384402;32;20475;-80
2020/12/16 13:06:26;;;;;;;381.98;364.33;;;;;;;;;;4381435;32;20489;-80
2020/12/16 13:08:54;;;;;;;433.42;410.42;;;;;;;;;;4384077;32;20096;-80
2020/12/16 13:11:23;;;;;;;392.85;372.92;;;;;;;;;;4384823;32;20050;-80
2020/12/16 13:13:51;;;;;;;40.28;37.22;;;;;;;;;;4385593;32;20427;-80
2020/12/16 13:16:19;;;;;;;12.02;1.23;;;;;;;;;;4385294;32;20119;-80
2020/12/16 13:18:48;;;;;;;85.60;32.78;;;;;;;;;;4384057;32;20379;-81
2020/12/16 13:21:16;;;;;;;1.55;1.55;;;;;;;;;;4386070;32;20072;-80
2020/12/16 13:23:44;;;;;;;1.60;1.50;;;;;;;;;;4383207;32;20066;-80
2020/12/16 13:26:12;;;;;;;1.75;1.65;;;;;;;;;;4370457;32;20071;-80
2020/12/16 13:28:40;;;;;;;1.70;1.60;;;;;;;;;;4385730;32;20043;-80
2020/12/16 13:31:08;;;;;;;1.95;1.85;;;;;;;;;;4387869;32;20182;-80
2020/12/16 13:33:37;;;;;;;3.72;2.40;;;;;;;;;;4383461;32;20051;-81
2020/12/16 13:36:09;;;;;;;2.37;2.28;;;;;;;;;;4390118;32;20442;-80
2020/12/16 13:38:37;;;;;;;3.97;3.67;;;;;;;;;;4386268;32;20409;-80
2020/12/16 13:41:06;;;;;;;2.30;1.90;;;;;;;;;;4384893;32;20427;-81
2020/12/16 13:43:34;;;;;;;3.22;3.03;;;;;;;;;;4386633;32;20107;-80
2020/12/16 13:46:02;;;;;;;3.60;3.40;;;;;;;;;;4383903;32;20472;-80